sensor_id;sensor_type;location;lat;lon;timestamp;pressure;altitude;pressure_sealevel;temperature
73662;BMP280;61956;52.540;13.382;2023-08-24T00:01:13;85896.97;;;19.50
73662;BMP280;61956;52.540;13.382;2023-08-24T00:03:43;85692.13;;;19.45
73662;BMP280;61956;52.540;13.382;2023-08-24T00:06:13;85510.88;;;19.40
73662;BMP280;61956;52.540;13.382;2023-08-24T00:08:45;85298.28;;;19.36
73662;BMP280;61956;52.540;13.382;2023-08-24T00:11:14;85366.31;;;19.34
73662;BMP280;61956;52.540;13.382;2023-08-24T00:13:44;85338.22;;;19.30
73662;BMP280;61956;52.540;13.382;2023-08-24T00:16:15;85749.72;;;19.33
73662;BMP280;61956;52.540;13.382;2023-08-24T00:18:45;85837.38;;;19.32
73662;BMP280;61956;52.540;13.382;2023-08-24T00:21:15;85883.81;;;19.31
73662;BMP280;61956;52.540;13.382;2023-08-24T00:23:51;86040.22;;;19.31
73662;BMP280;61956;52.540;13.382;2023-08-24T00:26:20;86162.56;;;19.32
73662;BMP280;61956;52.540;13.382;2023-08-24T00:28:49;86045.47;;;19.31
73662;BMP280;61956;52.540;13.382;2023-08-24T00:31:20;85917.81;;;19.27
73662;BMP280;61956;52.540;13.382;2023-08-24T00:33:49;86000.94;;;19.27
73662;BMP280;61956;52.540;13.382;2023-08-24T00:36:18;85218.59;;;19.18
73662;BMP280;61956;52.540;13.382;2023-08-24T00:38:51;84898.88;;;19.12
73662;BMP280;61956;52.540;13.382;2023-08-24T00:41:20;85219.94;;;19.11
73662;BMP280;61956;52.540;13.382;2023-08-24T00:43:52;85311.50;;;19.09
73662;BMP280;61956;52.540;13.382;2023-08-24T00:46:22;85290.56;;;19.09
73662;BMP280;61956;52.540;13.382;2023-08-24T00:48:53;85472.41;;;19.08
73662;BMP280;61956;52.540;13.382;2023-08-24T00:51:25;85632.59;;;19.09
73662;BMP280;61956;52.540;13.382;2023-08-24T00:53:57;85479.59;;;19.06
73662;BMP280;61956;52.540;13.382;2023-08-24T00:56:26;85549.53;;;19.05
73662;BMP280;61956;52.540;13.382;2023-08-24T00:58:56;85501.81;;;19.03
73662;BMP280;61956;52.540;13.382;2023-08-24T01:01:27;85728.72;;;19.04
73662;BMP280;61956;52.540;13.382;2023-08-24T01:03:58;85637.19;;;19.02
73662;BMP280;61956;52.540;13.382;2023-08-24T01:06:28;85514.22;;;19.00
73662;BMP280;61956;52.540;13.382;2023-08-24T01:09:01;85567.88;;;18.99
73662;BMP280;61956;52.540;13.382;2023-08-24T01:11:41;85824.84;;;19.00
73662;BMP280;61956;52.540;13.382;2023-08-24T01:14:23;85677.72;;;18.97
73662;BMP280;61956;52.540;13.382;2023-08-24T01:17:01;86101.50;;;19.01
73662;BMP280;61956;52.540;13.382;2023-08-24T01:19:38;86392.59;;;19.04
73662;BMP280;61956;52.540;13.382;2023-08-24T01:22:32;86397.19;;;19.03
73662;BMP280;61956;52.540;13.382;2023-08-24T01:25:13;86504.44;;;19.05
73662;BMP280;61956;52.540;13.382;2023-08-24T01:27:48;86970.34;;;19.09
73662;BMP280;61956;52.540;13.382;2023-08-24T01:30:18;87084.22;;;19.10
73662;BMP280;61956;52.540;13.382;2023-08-24T01:32:47;86925.84;;;19.09
73662;BMP280;61956;52.540;13.382;2023-08-24T01:35:16;87225.63;;;19.12
73662;BMP280;61956;52.540;13.382;2023-08-24T01:37:45;87532.03;;;19.16
73662;BMP280;61956;52.540;13.382;2023-08-24T01:40:18;87448.94;;;19.17
73662;BMP280;61956;52.540;13.382;2023-08-24T01:42:56;87729.13;;;19.19
73662;BMP280;61956;52.540;13.382;2023-08-24T01:45:31;87826.81;;;19.24
73662;BMP280;61956;52.540;13.382;2023-08-24T01:48:03;87839.84;;;19.22
73662;BMP280;61956;52.540;13.382;2023-08-24T01:50:34;87642.16;;;19.23
73662;BMP280;61956;52.540;13.382;2023-08-24T01:53:07;87761.31;;;19.22
73662;BMP280;61956;52.540;13.382;2023-08-24T01:55:36;87921.78;;;19.24
73662;BMP280;61956;52.540;13.382;2023-08-24T01:58:09;88164.81;;;19.28
73662;BMP280;61956;52.540;13.382;2023-08-24T02:00:38;88252.69;;;19.31
73662;BMP280;61956;52.540;13.382;2023-08-24T02:03:08;88153.16;;;19.31
73662;BMP280;61956;52.540;13.382;2023-08-24T02:05:37;88348.31;;;19.32
73662;BMP280;61956;52.540;13.382;2023-08-24T02:08:07;88745.44;;;19.37
73662;BMP280;61956;52.540;13.382;2023-08-24T02:10:36;89146.00;;;19.42
73662;BMP280;61956;52.540;13.382;2023-08-24T02:13:05;89442.38;;;19.47
73662;BMP280;61956;52.540;13.382;2023-08-24T02:15:38;89571.75;;;19.51
73662;BMP280;61956;52.540;13.382;2023-08-24T02:18:07;89558.78;;;19.53
73662;BMP280;61956;52.540;13.382;2023-08-24T02:20:37;89546.38;;;19.54
73662;BMP280;61956;52.540;13.382;2023-08-24T02:23:07;89615.34;;;19.56
73662;BMP280;61956;52.540;13.382;2023-08-24T02:25:41;90427.00;;;19.67
73662;BMP280;61956;52.540;13.382;2023-08-24T02:28:15;90769.16;;;19.74
73662;BMP280;61956;52.540;13.382;2023-08-24T02:30:47;90890.19;;;19.78
73662;BMP280;61956;52.540;13.382;2023-08-24T02:33:17;91585.25;;;19.89
73662;BMP280;61956;52.540;13.382;2023-08-24T02:35:47;91537.16;;;19.94
73662;BMP280;61956;52.540;13.382;2023-08-24T02:38:16;91771.38;;;20.00
73662;BMP280;61956;52.540;13.382;2023-08-24T02:40:45;92031.41;;;20.08
73662;BMP280;61956;52.540;13.382;2023-08-24T02:43:14;91861.63;;;20.10
73662;BMP280;61956;52.540;13.382;2023-08-24T02:45:46;91925.06;;;20.14
73662;BMP280;61956;52.540;13.382;2023-08-24T02:48:16;92078.50;;;20.19
73662;BMP280;61956;52.540;13.382;2023-08-24T02:50:45;92410.06;;;20.25
73662;BMP280;61956;52.540;13.382;2023-08-24T02:53:15;91995.72;;;20.25
73662;BMP280;61956;52.540;13.382;2023-08-24T02:55:44;91612.09;;;20.23
73662;BMP280;61956;52.540;13.382;2023-08-24T02:58:15;91349.28;;;20.21
73662;BMP280;61956;52.540;13.382;2023-08-24T03:00:47;91303.22;;;20.20
73662;BMP280;61956;52.540;13.382;2023-08-24T03:03:16;90920.97;;;20.17
73662;BMP280;61956;52.540;13.382;2023-08-24T03:05:55;90951.06;;;20.16
73662;BMP280;61956;52.540;13.382;2023-08-24T03:08:28;91081.81;;;20.18
73662;BMP280;61956;52.540;13.382;2023-08-24T03:10:58;91031.22;;;20.17
73662;BMP280;61956;52.540;13.382;2023-08-24T03:13:30;90959.66;;;20.17
73662;BMP280;61956;52.540;13.382;2023-08-24T03:16:05;91094.94;;;20.18
73662;BMP280;61956;52.540;13.382;2023-08-24T03:18:37;91004.97;;;20.17
73662;BMP280;61956;52.540;13.382;2023-08-24T03:21:07;90789.69;;;20.17
73662;BMP280;61956;52.540;13.382;2023-08-24T03:23:36;90734.41;;;20.15
73662;BMP280;61956;52.540;13.382;2023-08-24T03:26:06;90658.28;;;20.15
73662;BMP280;61956;52.540;13.382;2023-08-24T03:28:35;90668.63;;;20.13
73662;BMP280;61956;52.540;13.382;2023-08-24T03:31:07;90844.69;;;20.15
73662;BMP280;61956;52.540;13.382;2023-08-24T03:33:36;91737.63;;;20.25
73662;BMP280;61956;52.540;13.382;2023-08-24T03:36:06;92099.50;;;20.32
73662;BMP280;61956;52.540;13.382;2023-08-24T03:38:35;92074.84;;;20.35
73662;BMP280;61956;52.540;13.382;2023-08-24T03:41:04;91969.94;;;20.37
73662;BMP280;61956;52.540;13.382;2023-08-24T03:43:34;92033.22;;;20.39
73662;BMP280;61956;52.540;13.382;2023-08-24T03:46:07;91928.81;;;20.40
73662;BMP280;61956;52.540;13.382;2023-08-24T03:48:36;92115.06;;;20.43
73662;BMP280;61956;52.540;13.382;2023-08-24T03:51:05;91291.53;;;20.37
73662;BMP280;61956;52.540;13.382;2023-08-24T03:53:36;91121.16;;;20.33
73662;BMP280;61956;52.540;13.382;2023-08-24T03:56:06;91060.59;;;20.31
73662;BMP280;61956;52.540;13.382;2023-08-24T03:58:36;90948.19;;;20.30
73662;BMP280;61956;52.540;13.382;2023-08-24T04:01:10;91053.94;;;20.30
73662;BMP280;61956;52.540;13.382;2023-08-24T04:03:42;90798.19;;;20.25
73662;BMP280;61956;52.540;13.382;2023-08-24T04:06:11;91220.09;;;20.31
73662;BMP280;61956;52.540;13.382;2023-08-24T04:08:42;91317.41;;;20.33
73662;BMP280;61956;52.540;13.382;2023-08-24T04:11:11;91198.56;;;20.32
73662;BMP280;61956;52.540;13.382;2023-08-24T04:13:41;91086.88;;;20.31
73662;BMP280;61956;52.540;13.382;2023-08-24T04:16:14;90854.91;;;20.29
73662;BMP280;61956;52.540;13.382;2023-08-24T04:18:44;91360.69;;;20.32
73662;BMP280;61956;52.540;13.382;2023-08-24T04:21:13;91574.53;;;20.36
73662;BMP280;61956;52.540;13.382;2023-08-24T04:23:42;92078.78;;;20.42
73662;BMP280;61956;52.540;13.382;2023-08-24T04:26:12;92200.75;;;20.46
73662;BMP280;61956;52.540;13.382;2023-08-24T04:28:41;92472.56;;;20.51
73662;BMP280;61956;52.540;13.382;2023-08-24T04:31:11;92686.84;;;20.58
73662;BMP280;61956;52.540;13.382;2023-08-24T04:33:42;92445.50;;;20.56
73662;BMP280;61956;52.540;13.382;2023-08-24T04:36:11;92706.38;;;20.62
73662;BMP280;61956;52.540;13.382;2023-08-24T04:38:41;92156.59;;;20.58
73662;BMP280;61956;52.540;13.382;2023-08-24T04:41:10;91268.25;;;20.48
73662;BMP280;61956;52.540;13.382;2023-08-24T04:43:42;91068.25;;;20.44
73662;BMP280;61956;52.540;13.382;2023-08-24T04:46:14;90974.09;;;20.41
73662;BMP280;61956;52.540;13.382;2023-08-24T04:48:43;90669.13;;;20.37
73662;BMP280;61956;52.540;13.382;2023-08-24T04:51:12;90923.16;;;20.36
73662;BMP280;61956;52.540;13.382;2023-08-24T04:53:41;90800.25;;;20.35
73662;BMP280;61956;52.540;13.382;2023-08-24T04:56:10;92070.06;;;20.47
73662;BMP280;61956;52.540;13.382;2023-08-24T04:58:40;92788.84;;;20.59
73662;BMP280;61956;52.540;13.382;2023-08-24T05:01:22;92160.94;;;20.56
73662;BMP280;61956;52.540;13.382;2023-08-24T05:03:52;93007.97;;;20.67
73662;BMP280;61956;52.540;13.382;2023-08-24T05:06:21;92681.97;;;20.67
73662;BMP280;61956;52.540;13.382;2023-08-24T05:08:51;91752.56;;;20.59
73662;BMP280;61956;52.540;13.382;2023-08-24T05:11:23;91885.91;;;20.58
73662;BMP280;61956;52.540;13.382;2023-08-24T05:13:57;92498.91;;;20.64
73662;BMP280;61956;52.540;13.382;2023-08-24T05:16:29;92301.28;;;20.66
73662;BMP280;61956;52.540;13.382;2023-08-24T05:18:58;92231.50;;;20.65
73662;BMP280;61956;52.540;13.382;2023-08-24T05:21:29;92079.56;;;20.63
73662;BMP280;61956;52.540;13.382;2023-08-24T05:23:58;92186.09;;;20.64
73662;BMP280;61956;52.540;13.382;2023-08-24T05:26:27;92413.06;;;20.67
73662;BMP280;61956;52.540;13.382;2023-08-24T05:28:56;93202.28;;;20.76
73662;BMP280;61956;52.540;13.382;2023-08-24T05:31:25;93068.63;;;20.81
73662;BMP280;61956;52.540;13.382;2023-08-24T05:33:57;92976.59;;;20.81
73662;BMP280;61956;52.540;13.382;2023-08-24T05:36:26;93327.59;;;20.85
73662;BMP280;61956;52.540;13.382;2023-08-24T05:38:55;93696.13;;;20.93
73662;BMP280;61956;52.540;13.382;2023-08-24T05:41:25;93656.94;;;20.95
73662;BMP280;61956;52.540;13.382;2023-08-24T05:43:54;93897.13;;;21.01
73662;BMP280;61956;52.540;13.382;2023-08-24T05:46:23;94047.22;;;21.07
73662;BMP280;61956;52.540;13.382;2023-08-24T05:48:55;93293.16;;;21.00
73662;BMP280;61956;52.540;13.382;2023-08-24T05:51:26;93506.72;;;21.04
73662;BMP280;61956;52.540;13.382;2023-08-24T05:53:56;93801.25;;;21.08
73662;BMP280;61956;52.540;13.382;2023-08-24T05:56:25;93640.94;;;21.10
73662;BMP280;61956;52.540;13.382;2023-08-24T05:58:54;94052.78;;;21.14
73662;BMP280;61956;52.540;13.382;2023-08-24T06:01:27;93945.09;;;21.16
73662;BMP280;61956;52.540;13.382;2023-08-24T06:03:58;94172.28;;;21.22
73662;BMP280;61956;52.540;13.382;2023-08-24T06:06:27;93826.69;;;21.22
73662;BMP280;61956;52.540;13.382;2023-08-24T06:08:57;93179.00;;;21.14
73662;BMP280;61956;52.540;13.382;2023-08-24T06:11:26;93466.06;;;21.16
73662;BMP280;61956;52.540;13.382;2023-08-24T06:13:55;92741.03;;;21.10
73662;BMP280;61956;52.540;13.382;2023-08-24T06:16:24;92642.06;;;21.07
73662;BMP280;61956;52.540;13.382;2023-08-24T06:18:53;93172.06;;;21.11
73662;BMP280;61956;52.540;13.382;2023-08-24T06:21:25;93458.66;;;21.15
73662;BMP280;61956;52.540;13.382;2023-08-24T06:23:55;95265.97;;;21.38
73662;BMP280;61956;52.540;13.382;2023-08-24T06:26:24;95219.31;;;21.47
73662;BMP280;61956;52.540;13.382;2023-08-24T06:28:53;94956.16;;;21.49
73662;BMP280;61956;52.540;13.382;2023-08-24T06:31:22;95010.13;;;21.54
73662;BMP280;61956;52.540;13.382;2023-08-24T06:33:51;95278.63;;;21.61
73662;BMP280;61956;52.540;13.382;2023-08-24T06:36:21;94585.78;;;21.57
73662;BMP280;61956;52.540;13.382;2023-08-24T06:38:53;94585.78;;;21.57
73662;BMP280;61956;52.540;13.382;2023-08-24T06:44:12;95640.66;;;21.76
73662;BMP280;61956;52.540;13.382;2023-08-24T06:46:41;95659.75;;;21.80
73662;BMP280;61956;52.540;13.382;2023-08-24T06:49:12;95907.69;;;21.90
73662;BMP280;61956;52.540;13.382;2023-08-24T06:51:41;96661.72;;;22.04
73662;BMP280;61956;52.540;13.382;2023-08-24T06:54:13;96533.03;;;22.11
73662;BMP280;61956;52.540;13.382;2023-08-24T06:56:43;96559.25;;;22.19
73662;BMP280;61956;52.540;13.382;2023-08-24T06:59:12;97247.22;;;22.32
73662;BMP280;61956;52.540;13.382;2023-08-24T07:01:41;96500.88;;;22.33
73662;BMP280;61956;52.540;13.382;2023-08-24T07:04:10;96145.41;;;22.30
73662;BMP280;61956;52.540;13.382;2023-08-24T07:06:39;96571.25;;;22.39
73662;BMP280;61956;52.540;13.382;2023-08-24T07:09:09;96222.47;;;22.37
73662;BMP280;61956;52.540;13.382;2023-08-24T07:11:41;100443.38;;;22.97
73662;BMP280;61956;52.540;13.382;2023-08-24T07:14:10;97908.69;;;22.98
73662;BMP280;61956;52.540;13.382;2023-08-24T07:16:40;100000.00;;;23.20
73662;BMP280;61956;52.540;13.382;2023-08-24T07:19:09;106458.28;;;24.59
73662;BMP280;61956;52.540;13.382;2023-08-24T07:21:38;104960.94;;;25.38
73662;BMP280;61956;52.540;13.382;2023-08-24T07:24:08;98363.06;;;24.52
73662;BMP280;61956;52.540;13.382;2023-08-24T07:26:37;95903.88;;;24.02
73662;BMP280;61956;52.540;13.382;2023-08-24T07:29:08;95638.19;;;23.76
73662;BMP280;61956;52.540;13.382;2023-08-24T07:31:38;100264.63;;;24.46
73662;BMP280;61956;52.540;13.382;2023-08-24T07:34:07;105659.72;;;25.51
73662;BMP280;61956;52.540;13.382;2023-08-24T07:36:36;108492.75;;;26.94
73662;BMP280;61956;52.540;13.382;2023-08-24T07:39:06;105535.47;;;27.50
73662;BMP280;61956;52.540;13.382;2023-08-24T07:41:35;101735.19;;;26.97
73662;BMP280;61956;52.540;13.382;2023-08-24T07:44:04;105167.44;;;27.87
73662;BMP280;61956;52.540;13.382;2023-08-24T07:46:36;96618.97;;;26.69
73662;BMP280;61956;52.540;13.382;2023-08-24T07:49:07;101324.00;;;27.02
73662;BMP280;61956;52.540;13.382;2023-08-24T07:51:36;107290.56;;;28.29
73662;BMP280;61956;52.540;13.382;2023-08-24T07:54:06;109061.06;;;29.88
73662;BMP280;61956;52.540;13.382;2023-08-24T07:56:35;106423.59;;;30.32
73662;BMP280;61956;52.540;13.382;2023-08-24T07:59:04;106043.06;;;30.69
73662;BMP280;61956;52.540;13.382;2023-08-24T08:01:36;103177.63;;;30.12
73662;BMP280;61956;52.540;13.382;2023-08-24T08:04:05;103796.06;;;30.60
73662;BMP280;61956;52.540;13.382;2023-08-24T08:06:34;102773.06;;;30.47
73662;BMP280;61956;52.540;13.382;2023-08-24T08:09:04;99281.69;;;29.63
73662;BMP280;61956;52.540;13.382;2023-08-24T08:11:33;95547.69;;;28.47
73662;BMP280;61956;52.540;13.382;2023-08-24T08:14:03;95472.91;;;27.80
73662;BMP280;61956;52.540;13.382;2023-08-24T08:16:33;94280.69;;;27.29
73662;BMP280;61956;52.540;13.382;2023-08-24T08:19:04;90731.38;;;26.29
73662;BMP280;61956;52.540;13.382;2023-08-24T08:21:34;95631.25;;;26.60
73662;BMP280;61956;52.540;13.382;2023-08-24T08:24:03;93632.53;;;26.52
73662;BMP280;61956;52.540;13.382;2023-08-24T08:26:33;90212.81;;;25.65
73662;BMP280;61956;52.540;13.382;2023-08-24T08:29:02;89837.75;;;25.09
73662;BMP280;61956;52.540;13.382;2023-08-24T08:31:31;90437.94;;;24.91
73662;BMP280;61956;52.540;13.382;2023-08-24T08:34:03;90148.41;;;24.67
73662;BMP280;61956;52.540;13.382;2023-08-24T08:36:32;90085.22;;;24.45
73662;BMP280;61956;52.540;13.382;2023-08-24T08:39:01;90305.03;;;24.30
73662;BMP280;61956;52.540;13.382;2023-08-24T08:41:38;91241.91;;;24.31
73662;BMP280;61956;52.540;13.382;2023-08-24T08:44:13;91901.66;;;24.34
73662;BMP280;61956;52.540;13.382;2023-08-24T08:46:43;91374.69;;;24.22
73662;BMP280;61956;52.540;13.382;2023-08-24T08:49:16;91272.88;;;24.11
73662;BMP280;61956;52.540;13.382;2023-08-24T08:51:48;91972.63;;;24.13
73662;BMP280;61956;52.540;13.382;2023-08-24T08:54:18;93139.09;;;24.26
73662;BMP280;61956;52.540;13.382;2023-08-24T08:56:49;93720.34;;;24.39
73662;BMP280;61956;52.540;13.382;2023-08-24T08:59:19;93368.34;;;24.37
73662;BMP280;61956;52.540;13.382;2023-08-24T09:01:52;93107.47;;;24.34
73662;BMP280;61956;52.540;13.382;2023-08-24T09:04:24;93554.69;;;24.36
73662;BMP280;61956;52.540;13.382;2023-08-24T09:06:53;94689.19;;;24.52
73662;BMP280;61956;52.540;13.382;2023-08-24T09:09:23;96324.81;;;24.83
73662;BMP280;61956;52.540;13.382;2023-08-24T09:11:53;95620.59;;;24.87
73662;BMP280;61956;52.540;13.382;2023-08-24T09:14:22;96648.81;;;25.09
73662;BMP280;61956;52.540;13.382;2023-08-24T09:16:51;95630.31;;;25.05
73662;BMP280;61956;52.540;13.382;2023-08-24T09:19:27;95277.53;;;24.97
73662;BMP280;61956;52.540;13.382;2023-08-24T09:22:00;94644.56;;;24.88
73662;BMP280;61956;52.540;13.382;2023-08-24T09:24:31;93965.31;;;24.70
73662;BMP280;61956;52.540;13.382;2023-08-24T09:27:05;93847.22;;;24.61
73662;BMP280;61956;52.540;13.382;2023-08-24T09:29:46;94019.03;;;24.59
73662;BMP280;61956;52.540;13.382;2023-08-24T09:32:21;93769.78;;;24.55
73662;BMP280;61956;52.540;13.382;2023-08-24T09:34:54;95364.63;;;24.75
73662;BMP280;61956;52.540;13.382;2023-08-24T09:37:24;95595.00;;;24.84
73662;BMP280;61956;52.540;13.382;2023-08-24T09:40:01;95248.41;;;24.82
73662;BMP280;61956;52.540;13.382;2023-08-24T09:42:37;95995.22;;;24.99
73662;BMP280;61956;52.540;13.382;2023-08-24T09:45:09;96579.41;;;25.10
73662;BMP280;61956;52.540;13.382;2023-08-24T09:47:45;96723.41;;;25.20
73662;BMP280;61956;52.540;13.382;2023-08-24T09:50:20;96289.00;;;25.18
73662;BMP280;61956;52.540;13.382;2023-08-24T09:52:52;95881.78;;;25.12
73662;BMP280;61956;52.540;13.382;2023-08-24T09:55:26;95786.44;;;25.17
73662;BMP280;61956;52.540;13.382;2023-08-24T09:58:03;96378.56;;;25.24
73662;BMP280;61956;52.540;13.382;2023-08-24T10:00:35;95930.34;;;25.18
73662;BMP280;61956;52.540;13.382;2023-08-24T10:03:05;96615.94;;;25.28
73662;BMP280;61956;52.540;13.382;2023-08-24T10:05:38;97317.31;;;25.43
73662;BMP280;61956;52.540;13.382;2023-08-24T10:08:09;97251.47;;;25.55
73662;BMP280;61956;52.540;13.382;2023-08-24T10:10:39;97314.66;;;25.60
73662;BMP280;61956;52.540;13.382;2023-08-24T10:13:20;97051.06;;;25.63
73662;BMP280;61956;52.540;13.382;2023-08-24T10:15:56;96843.03;;;25.60
73662;BMP280;61956;52.540;13.382;2023-08-24T10:18:26;96951.38;;;25.62
73662;BMP280;61956;52.540;13.382;2023-08-24T10:20:59;97762.09;;;25.81
73662;BMP280;61956;52.540;13.382;2023-08-24T10:23:30;97422.22;;;25.81
73662;BMP280;61956;52.540;13.382;2023-08-24T10:26:02;96928.66;;;25.73
73662;BMP280;61956;52.540;13.382;2023-08-24T10:28:32;97161.28;;;25.80
73662;BMP280;61956;52.540;13.382;2023-08-24T10:31:02;96850.50;;;25.74
73662;BMP280;61956;52.540;13.382;2023-08-24T10:33:32;97437.25;;;25.87
73662;BMP280;61956;52.540;13.382;2023-08-24T10:36:07;97642.38;;;25.91
73662;BMP280;61956;52.540;13.382;2023-08-24T10:38:41;98689.88;;;26.15
73662;BMP280;61956;52.540;13.382;2023-08-24T10:41:10;98572.91;;;26.22
73662;BMP280;61956;52.540;13.382;2023-08-24T10:43:41;98519.66;;;26.37
73662;BMP280;61956;52.540;13.382;2023-08-24T10:46:18;96840.59;;;26.10
73662;BMP280;61956;52.540;13.382;2023-08-24T10:48:59;99029.72;;;26.38
73662;BMP280;61956;52.540;13.382;2023-08-24T10:51:31;98905.47;;;26.53
73662;BMP280;61956;52.540;13.382;2023-08-24T10:54:14;98138.22;;;26.45
73662;BMP280;61956;52.540;13.382;2023-08-24T10:56:52;98889.84;;;26.58
73662;BMP280;61956;52.540;13.382;2023-08-24T10:59:24;98836.59;;;26.69
73662;BMP280;61956;52.540;13.382;2023-08-24T11:01:56;98030.16;;;26.58
73662;BMP280;61956;52.540;13.382;2023-08-24T11:04:27;98283.47;;;26.62
73662;BMP280;61956;52.540;13.382;2023-08-24T11:07:00;97519.06;;;26.54
73662;BMP280;61956;52.540;13.382;2023-08-24T11:09:45;97838.91;;;26.51
73662;BMP280;61956;52.540;13.382;2023-08-24T11:12:15;98087.84;;;26.61
73662;BMP280;61956;52.540;13.382;2023-08-24T11:14:51;98124.34;;;26.60
73662;BMP280;61956;52.540;13.382;2023-08-24T11:17:29;98261.78;;;26.67
73662;BMP280;61956;52.540;13.382;2023-08-24T11:20:00;98819.84;;;26.79
73662;BMP280;61956;52.540;13.382;2023-08-24T11:22:32;98489.97;;;26.79
73662;BMP280;61956;52.540;13.382;2023-08-24T11:25:03;98617.22;;;26.84
73662;BMP280;61956;52.540;13.382;2023-08-24T11:27:33;97781.38;;;26.77
73662;BMP280;61956;52.540;13.382;2023-08-24T11:30:04;98013.88;;;26.76
73662;BMP280;61956;52.540;13.382;2023-08-24T11:32:35;98187.84;;;26.78
73662;BMP280;61956;52.540;13.382;2023-08-24T11:35:06;99466.47;;;27.01
73662;BMP280;61956;52.540;13.382;2023-08-24T11:37:41;98091.16;;;26.88
73662;BMP280;61956;52.540;13.382;2023-08-24T11:40:16;98552.44;;;26.98
73662;BMP280;61956;52.540;13.382;2023-08-24T11:42:46;99485.53;;;27.17
73662;BMP280;61956;52.540;13.382;2023-08-24T11:45:17;100215.47;;;27.38
73662;BMP280;61956;52.540;13.382;2023-08-24T11:47:46;99501.94;;;27.37
73662;BMP280;61956;52.540;13.382;2023-08-24T11:50:16;98271.53;;;27.21
73662;BMP280;61956;52.540;13.382;2023-08-24T11:52:48;97849.81;;;27.09
73662;BMP280;61956;52.540;13.382;2023-08-24T11:55:17;97967.38;;;27.04
73662;BMP280;61956;52.540;13.382;2023-08-24T11:57:46;97910.72;;;27.03
73662;BMP280;61956;52.540;13.382;2023-08-24T12:00:15;97178.44;;;26.90
73662;BMP280;61956;52.540;13.382;2023-08-24T12:02:47;98180.69;;;26.99
73662;BMP280;61956;52.540;13.382;2023-08-24T12:05:20;97052.09;;;26.85
73662;BMP280;61956;52.540;13.382;2023-08-24T12:07:54;96917.47;;;26.79
73662;BMP280;61956;52.540;13.382;2023-08-24T12:10:23;98359.75;;;26.96
73662;BMP280;61956;52.540;13.382;2023-08-24T12:13:02;97543.88;;;26.93
73662;BMP280;61956;52.540;13.382;2023-08-24T12:15:34;97239.09;;;26.82
73662;BMP280;61956;52.540;13.382;2023-08-24T12:18:08;97115.84;;;26.76
73662;BMP280;61956;52.540;13.382;2023-08-24T12:20:38;98187.97;;;26.95
73662;BMP280;61956;52.540;13.382;2023-08-24T12:23:11;98502.22;;;27.04
73662;BMP280;61956;52.540;13.382;2023-08-24T12:25:43;98353.88;;;27.08
73662;BMP280;61956;52.540;13.382;2023-08-24T12:28:14;98077.25;;;27.01
73662;BMP280;61956;52.540;13.382;2023-08-24T12:30:46;98293.09;;;27.06
73662;BMP280;61956;52.540;13.382;2023-08-24T12:33:23;98299.47;;;27.12
73662;BMP280;61956;52.540;13.382;2023-08-24T12:35:54;98522.63;;;27.14
73662;BMP280;61956;52.540;13.382;2023-08-24T12:38:27;99080.03;;;27.27
73662;BMP280;61956;52.540;13.382;2023-08-24T12:40:56;98956.75;;;27.30
73662;BMP280;61956;52.540;13.382;2023-08-24T12:43:25;99137.06;;;27.37
73662;BMP280;61956;52.540;13.382;2023-08-24T12:45:55;99292.66;;;27.50
73662;BMP280;61956;52.540;13.382;2023-08-24T12:48:24;98439.00;;;27.38
73662;BMP280;61956;52.540;13.382;2023-08-24T12:50:53;98398.75;;;27.33
73662;BMP280;61956;52.540;13.382;2023-08-24T12:53:22;98477.06;;;27.35
73662;BMP280;61956;52.540;13.382;2023-08-24T12:55:54;99083.75;;;27.47
73662;BMP280;61956;52.540;13.382;2023-08-24T12:58:23;99499.69;;;27.64
73662;BMP280;61956;52.540;13.382;2023-08-24T13:00:52;98922.38;;;27.54
73662;BMP280;61956;52.540;13.382;2023-08-24T13:03:21;99693.44;;;27.67
73662;BMP280;61956;52.540;13.382;2023-08-24T13:05:50;99767.78;;;27.75
73662;BMP280;61956;52.540;13.382;2023-08-24T13:08:20;98144.28;;;27.55
73662;BMP280;61956;52.540;13.382;2023-08-24T13:10:49;99858.75;;;27.74
73662;BMP280;61956;52.540;13.382;2023-08-24T13:13:22;99848.53;;;27.87
73662;BMP280;61956;52.540;13.382;2023-08-24T13:15:51;99776.19;;;27.88
73662;BMP280;61956;52.540;13.382;2023-08-24T13:18:20;99916.03;;;28.01
73662;BMP280;61956;52.540;13.382;2023-08-24T13:20:49;99874.91;;;28.06
73662;BMP280;61956;52.540;13.382;2023-08-24T13:23:18;99498.53;;;28.08
73662;BMP280;61956;52.540;13.382;2023-08-24T13:25:47;99472.66;;;28.04
73662;BMP280;61956;52.540;13.382;2023-08-24T13:28:16;100450.09;;;28.21
73662;BMP280;61956;52.540;13.382;2023-08-24T13:30:48;100535.28;;;28.37
73662;BMP280;61956;52.540;13.382;2023-08-24T13:33:17;98863.91;;;28.15
73662;BMP280;61956;52.540;13.382;2023-08-24T13:35:46;98541.56;;;28.00
73662;BMP280;61956;52.540;13.382;2023-08-24T13:38:15;98371.53;;;27.92
73662;BMP280;61956;52.540;13.382;2023-08-24T13:40:45;98574.06;;;27.92
73662;BMP280;61956;52.540;13.382;2023-08-24T13:43:15;98104.03;;;27.86
73662;BMP280;61956;52.540;13.382;2023-08-24T13:45:48;97992.25;;;27.82
73662;BMP280;61956;52.540;13.382;2023-08-24T13:48:17;97816.63;;;27.75
73662;BMP280;61956;52.540;13.382;2023-08-24T13:50:49;99304.72;;;27.97
73662;BMP280;61956;52.540;13.382;2023-08-24T13:53:20;99199.91;;;28.08
73662;BMP280;61956;52.540;13.382;2023-08-24T13:55:49;98660.78;;;27.96
73662;BMP280;61956;52.540;13.382;2023-08-24T13:58:18;99343.16;;;28.07
73662;BMP280;61956;52.540;13.382;2023-08-24T14:00:54;99483.31;;;28.19
73662;BMP280;61956;52.540;13.382;2023-08-24T14:03:24;99042.56;;;28.11
73662;BMP280;61956;52.540;13.382;2023-08-24T14:05:55;99435.66;;;28.17
73662;BMP280;61956;52.540;13.382;2023-08-24T14:08:24;98176.00;;;28.02
73662;BMP280;61956;52.540;13.382;2023-08-24T14:10:53;97259.09;;;27.78
73662;BMP280;61956;52.540;13.382;2023-08-24T14:13:22;98547.81;;;27.90
73662;BMP280;61956;52.540;13.382;2023-08-24T14:15:55;98201.38;;;27.90
73662;BMP280;61956;52.540;13.382;2023-08-24T14:18:24;98036.72;;;27.85
73662;BMP280;61956;52.540;13.382;2023-08-24T14:20:53;97498.50;;;27.76